sensor_id;sensor_type;location;lat;lon;timestamp;pressure;altitude;pressure_sealevel;temperature;humidity
11212;BME280;5663;50.864;12.096;2023-04-28T00:01:17;99523.41;;;7.54;60.04
11212;BME280;5663;50.864;12.096;2023-04-28T00:03:46;99526.00;;;7.54;60.69
11212;BME280;5663;50.864;12.096;2023-04-28T00:06:16;99522.53;;;7.55;60.48
11212;BME280;5663;50.864;12.096;2023-04-28T00:08:46;99513.97;;;7.53;61.34
11212;BME280;5663;50.864;12.096;2023-04-28T00:11:17;99513.84;;;7.56;61.29
11212;BME280;5663;50.864;12.096;2023-04-28T00:13:48;99505.19;;;7.57;60.97
11212;BME280;5663;50.864;12.096;2023-04-28T00:16:21;99512.91;;;7.58;60.71
11212;BME280;5663;50.864;12.096;2023-04-28T00:18:53;99498.16;;;7.60;61.42
11212;BME280;5663;50.864;12.096;2023-04-28T00:21:24;99493.88;;;7.59;61.67
11212;BME280;5663;50.864;12.096;2023-04-28T00:23:56;99482.06;;;7.52;61.31
11212;BME280;5663;50.864;12.096;2023-04-28T00:26:25;99492.31;;;7.55;61.68
11212;BME280;5663;50.864;12.096;2023-04-28T00:28:54;99492.31;;;7.55;61.19
11212;BME280;5663;50.864;12.096;2023-04-28T00:34:50;99489.75;;;7.54;61.38
11212;BME280;5663;50.864;12.096;2023-04-28T00:37:20;99490.63;;;7.54;61.58
11212;BME280;5663;50.864;12.096;2023-04-28T00:39:55;99475.31;;;7.48;61.37
11212;BME280;5663;50.864;12.096;2023-04-28T00:42:25;99477.63;;;7.56;61.57
11212;BME280;5663;50.864;12.096;2023-04-28T00:44:52;99463.78;;;7.57;61.78
11212;BME280;5663;50.864;12.096;2023-04-28T00:47:21;99468.22;;;7.53;61.95
11212;BME280;5663;50.864;12.096;2023-04-28T00:49:49;99445.47;;;7.39;61.81
11212;BME280;5663;50.864;12.096;2023-04-28T00:52:19;99455.34;;;7.52;62.19
11212;BME280;5663;50.864;12.096;2023-04-28T00:54:48;99463.13;;;7.52;62.29
11212;BME280;5663;50.864;12.096;2023-04-28T00:57:20;99457.13;;;7.50;62.29
11212;BME280;5663;50.864;12.096;2023-04-28T00:59:50;99464.03;;;7.51;62.42
11212;BME280;5663;50.864;12.096;2023-04-28T01:02:20;99460.53;;;7.52;62.31
11212;BME280;5663;50.864;12.096;2023-04-28T01:04:52;99459.69;;;7.51;62.52
11212;BME280;5663;50.864;12.096;2023-04-28T01:07:22;99467.50;;;7.50;62.56
11212;BME280;5663;50.864;12.096;2023-04-28T01:09:51;99461.38;;;7.52;62.49
11212;BME280;5663;50.864;12.096;2023-04-28T01:12:22;99459.63;;;7.53;62.47
11212;BME280;5663;50.864;12.096;2023-04-28T01:14:51;99453.53;;;7.54;62.74
11212;BME280;5663;50.864;12.096;2023-04-28T01:17:20;99444.91;;;7.55;62.73
11212;BME280;5663;50.864;12.096;2023-04-28T01:19:50;99441.41;;;7.56;62.97
11212;BME280;5663;50.864;12.096;2023-04-28T01:22:20;99438.00;;;7.54;63.17
11212;BME280;5663;50.864;12.096;2023-04-28T01:24:51;99436.22;;;7.56;62.96
11212;BME280;5663;50.864;12.096;2023-04-28T01:27:21;99424.06;;;7.58;63.21
11212;BME280;5663;50.864;12.096;2023-04-28T01:29:52;99424.06;;;7.58;63.50
11212;BME280;5663;50.864;12.096;2023-04-28T01:32:22;99422.28;;;7.60;63.63
11212;BME280;5663;50.864;12.096;2023-04-28T01:34:52;99424.75;;;7.63;63.76
11212;BME280;5663;50.864;12.096;2023-04-28T01:37:21;99434.09;;;7.67;63.76
11212;BME280;5663;50.864;12.096;2023-04-28T01:39:52;99430.47;;;7.71;63.01
11212;BME280;5663;50.864;12.096;2023-04-28T01:42:21;99431.19;;;7.75;63.43
11212;BME280;5663;50.864;12.096;2023-04-28T01:44:53;99434.53;;;7.78;62.70
11212;BME280;5663;50.864;12.096;2023-04-28T01:47:23;99426.59;;;7.81;63.08
11212;BME280;5663;50.864;12.096;2023-04-28T01:49:52;99414.56;;;7.80;62.78
11212;BME280;5663;50.864;12.096;2023-04-28T01:52:23;99417.97;;;7.82;62.92
11212;BME280;5663;50.864;12.096;2023-04-28T01:54:56;99417.06;;;7.83;63.31
11212;BME280;5663;50.864;12.096;2023-04-28T01:57:25;99409.19;;;7.86;63.00
11212;BME280;5663;50.864;12.096;2023-04-28T01:59:56;99412.53;;;7.88;62.74
11212;BME280;5663;50.864;12.096;2023-04-28T02:02:25;99410.66;;;7.92;62.62
11212;BME280;5663;50.864;12.096;2023-04-28T02:04:55;99396.88;;;7.92;62.59
11212;BME280;5663;50.864;12.096;2023-04-28T02:07:23;99381.56;;;7.85;62.97
11212;BME280;5663;50.864;12.096;2023-04-28T02:09:53;99398.38;;;7.97;62.74
11212;BME280;5663;50.864;12.096;2023-04-28T02:12:23;99398.38;;;7.97;63.14
11212;BME280;5663;50.864;12.096;2023-04-28T02:14:52;99396.63;;;7.98;62.92
11212;BME280;5663;50.864;12.096;2023-04-28T02:17:20;99405.19;;;8.00;62.42
11212;BME280;5663;50.864;12.096;2023-04-28T02:19:53;99396.63;;;7.98;62.77
11212;BME280;5663;50.864;12.096;2023-04-28T02:22:25;99393.00;;;8.02;62.79
11212;BME280;5663;50.864;12.096;2023-04-28T02:24:56;99392.13;;;8.03;62.86
11212;BME280;5663;50.864;12.096;2023-04-28T02:27:27;99379.53;;;7.94;62.52
11212;BME280;5663;50.864;12.096;2023-04-28T02:29:56;99377.72;;;7.96;62.02
11212;BME280;5663;50.864;12.096;2023-04-28T02:32:25;99392.78;;;8.08;62.41
11212;BME280;5663;50.864;12.096;2023-04-28T02:34:54;99397.00;;;8.10;62.81
11212;BME280;5663;50.864;12.096;2023-04-28T02:37:50;99389.16;;;8.12;63.16
11212;BME280;5663;50.864;12.096;2023-04-28T02:40:19;99387.47;;;8.11;62.69
11212;BME280;5663;50.864;12.096;2023-04-28T02:42:50;99394.34;;;8.12;62.83
11212;BME280;5663;50.864;12.096;2023-04-28T02:45:19;99389.16;;;8.12;63.13
11212;BME280;5663;50.864;12.096;2023-04-28T02:47:49;99360.38;;;7.98;63.11
11212;BME280;5663;50.864;12.096;2023-04-28T02:50:17;99383.84;;;8.15;63.03
11212;BME280;5663;50.864;12.096;2023-04-28T02:52:47;99389.88;;;8.15;63.47
11212;BME280;5663;50.864;12.096;2023-04-28T02:55:16;99376.91;;;8.15;63.50
11212;BME280;5663;50.864;12.096;2023-04-28T02:57:51;99366.09;;;8.06;64.04
11212;BME280;5663;50.864;12.096;2023-04-28T03:00:23;99380.47;;;8.13;63.74
11212;BME280;5663;50.864;12.096;2023-04-28T03:02:51;99378.78;;;8.12;63.99
11212;BME280;5663;50.864;12.096;2023-04-28T03:05:21;99373.63;;;8.12;64.20
11212;BME280;5663;50.864;12.096;2023-04-28T03:07:49;99352.16;;;8.08;64.06
11212;BME280;5663;50.864;12.096;2023-04-28T03:10:18;99354.72;;;8.10;64.46
11212;BME280;5663;50.864;12.096;2023-04-28T03:12:48;99322.81;;;7.87;64.28
11212;BME280;5663;50.864;12.096;2023-04-28T03:15:48;99357.53;;;8.04;64.42
11212;BME280;5663;50.864;12.096;2023-04-28T03:18:17;99347.31;;;8.01;64.55
11212;BME280;5663;50.864;12.096;2023-04-28T03:20:50;99341.56;;;7.94;64.69
11212;BME280;5663;50.864;12.096;2023-04-28T03:23:19;99350.88;;;7.98;64.64
11212;BME280;5663;50.864;12.096;2023-04-28T03:25:48;99334.47;;;7.98;64.69
11212;BME280;5663;50.864;12.096;2023-04-28T03:28:18;99334.47;;;7.98;64.40
11212;BME280;5663;50.864;12.096;2023-04-28T03:30:48;99327.72;;;7.94;64.58
11212;BME280;5663;50.864;12.096;2023-04-28T03:33:17;99332.78;;;7.97;64.40
11212;BME280;5663;50.864;12.096;2023-04-28T03:35:45;99309.22;;;7.82;64.13
11212;BME280;5663;50.864;12.096;2023-04-28T03:38:14;99327.69;;;7.95;64.40
11212;BME280;5663;50.864;12.096;2023-04-28T03:40:43;99304.16;;;7.79;63.95
11212;BME280;5663;50.864;12.096;2023-04-28T03:43:13;99310.41;;;7.96;64.08
11212;BME280;5663;50.864;12.096;2023-04-28T03:46:29;99303.66;;;7.92;64.25
11212;BME280;5663;50.864;12.096;2023-04-28T03:48:58;99308.97;;;7.88;64.39
11212;BME280;5663;50.864;12.096;2023-04-28T03:51:27;99311.56;;;7.88;64.29
11212;BME280;5663;50.864;12.096;2023-04-28T03:53:56;99304.81;;;7.84;63.79
11212;BME280;5663;50.864;12.096;2023-04-28T03:56:25;99303.78;;;7.88;64.12
11212;BME280;5663;50.864;12.096;2023-04-28T03:58:54;99302.09;;;7.87;63.89
11212;BME280;5663;50.864;12.096;2023-04-28T04:01:24;99299.63;;;7.84;64.42
11212;BME280;5663;50.864;12.096;2023-04-28T04:03:54;99300.44;;;7.86;64.65
11212;BME280;5663;50.864;12.096;2023-04-28T04:06:25;99292.50;;;7.89;64.49
11212;BME280;5663;50.864;12.096;2023-04-28T04:09:04;99295.91;;;7.92;64.36
11212;BME280;5663;50.864;12.096;2023-04-28T04:11:33;99290.59;;;7.95;64.02
11212;BME280;5663;50.864;12.096;2023-04-28T04:14:02;99270.31;;;7.84;63.67
11212;BME280;5663;50.864;12.096;2023-04-28T04:16:35;99297.34;;;7.99;63.42
11212;BME280;5663;50.864;12.096;2023-04-28T04:19:08;99280.28;;;7.93;64.00
11212;BME280;5663;50.864;12.096;2023-04-28T04:21:37;99291.00;;;8.06;64.40
11212;BME280;5663;50.864;12.096;2023-04-28T04:24:06;99285.75;;;8.07;64.00
11212;BME280;5663;50.864;12.096;2023-04-28T04:26:36;99291.44;;;8.15;64.13
11212;BME280;5663;50.864;12.096;2023-04-28T04:29:06;99285.16;;;8.21;64.28
11212;BME280;5663;50.864;12.096;2023-04-28T04:31:36;99280.56;;;8.28;64.41
11212;BME280;5663;50.864;12.096;2023-04-28T04:34:08;99271.66;;;8.33;63.96
11212;BME280;5663;50.864;12.096;2023-04-28T04:36:36;99248.75;;;8.24;63.69
11212;BME280;5663;50.864;12.096;2023-04-28T04:39:05;99263.38;;;8.46;63.63
11212;BME280;5663;50.864;12.096;2023-04-28T04:41:34;99271.81;;;8.51;63.64
11212;BME280;5663;50.864;12.096;2023-04-28T04:44:04;99266.34;;;8.57;63.96
11212;BME280;5663;50.864;12.096;2023-04-28T04:46:36;99261.88;;;8.60;63.61
11212;BME280;5663;50.864;12.096;2023-04-28T04:52:45;99267.09;;;8.79;63.27
11212;BME280;5663;50.864;12.096;2023-04-28T04:55:14;99261.59;;;8.85;63.88
11212;BME280;5663;50.864;12.096;2023-04-28T04:57:44;99229.38;;;8.72;63.49
11212;BME280;5663;50.864;12.096;2023-04-28T05:00:13;99260.19;;;8.97;63.24
11212;BME280;5663;50.864;12.096;2023-04-28T05:02:43;99250.53;;;9.01;63.53
11212;BME280;5663;50.864;12.096;2023-04-28T05:05:13;99258.78;;;9.09;63.52
11212;BME280;5663;50.864;12.096;2023-04-28T05:07:43;99249.97;;;9.13;63.55
11212;BME280;5663;50.864;12.096;2023-04-28T05:10:12;99251.34;;;9.20;63.48
11212;BME280;5663;50.864;12.096;2023-04-28T05:12:42;99243.50;;;9.22;62.98
11212;BME280;5663;50.864;12.096;2023-04-28T05:15:18;99246.63;;;9.28;62.95
11212;BME280;5663;50.864;12.096;2023-04-28T05:17:47;99247.25;;;9.33;62.74
11212;BME280;5663;50.864;12.096;2023-04-28T05:20:16;99241.94;;;9.36;62.53
11212;BME280;5663;50.864;12.096;2023-04-28T05:22:48;99223.16;;;9.31;62.48
11212;BME280;5663;50.864;12.096;2023-04-28T05:25:17;99244.84;;;9.48;62.32
11212;BME280;5663;50.864;12.096;2023-04-28T05:27:47;99247.91;;;9.56;61.95
11212;BME280;5663;50.864;12.096;2023-04-28T05:30:17;99240.72;;;9.61;62.51
11212;BME280;5663;50.864;12.096;2023-04-28T05:32:46;99239.38;;;9.71;62.11
11212;BME280;5663;50.864;12.096;2023-04-28T05:35:17;99230.44;;;9.77;62.09
11212;BME280;5663;50.864;12.096;2023-04-28T05:37:50;99231.06;;;9.82;61.66
11212;BME280;5663;50.864;12.096;2023-04-28T05:40:20;99235.09;;;9.87;60.86
11212;BME280;5663;50.864;12.096;2023-04-28T05:42:49;99223.63;;;9.92;60.88
11212;BME280;5663;50.864;12.096;2023-04-28T05:45:19;99210.03;;;9.86;60.94
11212;BME280;5663;50.864;12.096;2023-04-28T05:47:50;99216.44;;;9.97;60.50
11212;BME280;5663;50.864;12.096;2023-04-28T05:50:19;99212.63;;;10.04;61.02
11212;BME280;5663;50.864;12.096;2023-04-28T05:52:50;99220.25;;;10.07;60.91
11212;BME280;5663;50.864;12.096;2023-04-28T05:55:19;99214.72;;;10.13;61.13
11212;BME280;5663;50.864;12.096;2023-04-28T05:57:48;99215.16;;;10.21;61.09
11212;BME280;5663;50.864;12.096;2023-04-28T06:00:18;99210.47;;;10.29;61.10
11212;BME280;5663;50.864;12.096;2023-04-28T06:02:48;99212.75;;;10.35;61.28
11212;BME280;5663;50.864;12.096;2023-04-28T06:05:19;99210.41;;;10.47;60.84
11212;BME280;5663;50.864;12.096;2023-04-28T06:07:52;99214.28;;;10.55;60.99
11212;BME280;5663;50.864;12.096;2023-04-28T06:10:25;99206.06;;;10.63;60.64
11212;BME280;5663;50.864;12.096;2023-04-28T06:12:54;99210.78;;;10.72;60.76
11212;BME280;5663;50.864;12.096;2023-04-28T06:15:24;99212.97;;;10.80;60.21
11212;BME280;5663;50.864;12.096;2023-04-28T06:17:53;99216.06;;;10.87;59.91
11212;BME280;5663;50.864;12.096;2023-04-28T06:20:22;99218.16;;;10.96;60.10
11212;BME280;5663;50.864;12.096;2023-04-28T06:22:53;99209.94;;;11.03;60.20
11212;BME280;5663;50.864;12.096;2023-04-28T06:25:21;99219.00;;;11.12;59.99
11212;BME280;5663;50.864;12.096;2023-04-28T06:27:50;99213.28;;;11.21;59.61
11212;BME280;5663;50.864;12.096;2023-04-28T06:30:22;99210.22;;;11.29;59.50
11212;BME280;5663;50.864;12.096;2023-04-28T06:32:54;99212.25;;;11.40;59.25
11212;BME280;5663;50.864;12.096;2023-04-28T06:35:24;99220.44;;;11.48;59.03
11212;BME280;5663;50.864;12.096;2023-04-28T06:37:54;99217.34;;;11.57;58.63
11212;BME280;5663;50.864;12.096;2023-04-28T06:40:23;99220.25;;;11.67;58.74
11212;BME280;5663;50.864;12.096;2023-04-28T06:42:53;99217.94;;;11.76;58.32
11212;BME280;5663;50.864;12.096;2023-04-28T06:45:23;99178.66;;;11.65;57.73
11212;BME280;5663;50.864;12.096;2023-04-28T06:47:55;99200.31;;;11.96;58.35
11212;BME280;5663;50.864;12.096;2023-04-28T06:50:24;99204.81;;;12.08;57.92
11212;BME280;5663;50.864;12.096;2023-04-28T06:53:13;99206.59;;;12.22;57.49
11212;BME280;5663;50.864;12.096;2023-04-28T06:55:43;99198.38;;;12.28;57.94
11212;BME280;5663;50.864;12.096;2023-04-28T06:58:12;99201.09;;;12.41;57.89
11212;BME280;5663;50.864;12.096;2023-04-28T07:00:42;99201.47;;;12.49;58.19
11212;BME280;5663;50.864;12.096;2023-04-28T07:03:14;99196.63;;;12.57;57.99
11212;BME280;5663;50.864;12.096;2023-04-28T07:05:43;99183.59;;;12.57;57.37
11212;BME280;5663;50.864;12.096;2023-04-28T07:08:14;99201.09;;;12.69;57.33
11212;BME280;5663;50.864;12.096;2023-04-28T07:10:44;99195.66;;;12.72;56.51
11212;BME280;5663;50.864;12.096;2023-04-28T07:13:13;99188.75;;;12.71;56.37
11212;BME280;5663;50.864;12.096;2023-04-28T07:15:41;99182.41;;;12.75;56.70
11212;BME280;5663;50.864;12.096;2023-04-28T07:18:11;99156.06;;;12.66;57.46
11212;BME280;5663;50.864;12.096;2023-04-28T07:20:40;99189.09;;;12.94;58.03
11212;BME280;5663;50.864;12.096;2023-04-28T07:23:34;99192.69;;;13.05;58.13
11212;BME280;5663;50.864;12.096;2023-04-28T07:26:05;99189.59;;;13.13;58.78
11212;BME280;5663;50.864;12.096;2023-04-28T07:28:35;99195.09;;;13.23;58.88
11212;BME280;5663;50.864;12.096;2023-04-28T07:31:04;99197.19;;;13.30;58.85
11212;BME280;5663;50.864;12.096;2023-04-28T07:33:36;99183.75;;;13.37;59.01
11212;BME280;5663;50.864;12.096;2023-04-28T07:36:08;99173.00;;;13.41;58.36
11212;BME280;5663;50.864;12.096;2023-04-28T07:38:39;99181.59;;;13.56;58.25
11212;BME280;5663;50.864;12.096;2023-04-28T07:41:10;99187.69;;;13.69;57.89
11212;BME280;5663;50.864;12.096;2023-04-28T07:43:41;99186.13;;;13.79;57.86
11212;BME280;5663;50.864;12.096;2023-04-28T07:46:12;99184.38;;;13.93;57.91
11212;BME280;5663;50.864;12.096;2023-04-28T07:48:40;99189.09;;;14.00;57.08
11212;BME280;5663;50.864;12.096;2023-04-28T07:51:29;99186.88;;;14.07;56.63
11212;BME280;5663;50.864;12.096;2023-04-28T07:53:59;99182.91;;;14.14;56.81
11212;BME280;5663;50.864;12.096;2023-04-28T07:56:30;99182.16;;;14.25;57.09
11212;BME280;5663;50.864;12.096;2023-04-28T07:59:00;99171.19;;;14.33;57.10
11212;BME280;5663;50.864;12.096;2023-04-28T08:01:29;99178.25;;;14.43;56.50
11212;BME280;5663;50.864;12.096;2023-04-28T08:03:57;99177.88;;;14.49;56.27
11212;BME280;5663;50.864;12.096;2023-04-28T08:06:50;99177.97;;;14.61;55.24
11212;BME280;5663;50.864;12.096;2023-04-28T08:09:23;99174.72;;;14.57;54.67
11212;BME280;5663;50.864;12.096;2023-04-28T08:11:52;99185.97;;;14.70;55.48
11212;BME280;5663;50.864;12.096;2023-04-28T08:14:21;99187.22;;;14.77;55.63
11212;BME280;5663;50.864;12.096;2023-04-28T08:16:58;99180.69;;;14.83;55.25
11212;BME280;5663;50.864;12.096;2023-04-28T08:19:28;99172.34;;;14.78;55.15
11212;BME280;5663;50.864;12.096;2023-04-28T08:22:08;99187.38;;;14.87;54.47
11212;BME280;5663;50.864;12.096;2023-04-28T08:24:40;99188.22;;;14.88;55.05
11212;BME280;5663;50.864;12.096;2023-04-28T08:27:10;99189.78;;;14.90;55.53
11212;BME280;5663;50.864;12.096;2023-04-28T08:29:39;99175.25;;;14.86;55.10
11212;BME280;5663;50.864;12.096;2023-04-28T08:32:11;99186.47;;;14.88;55.09
11212;BME280;5663;50.864;12.096;2023-04-28T08:34:50;99187.84;;;14.81;55.19
11212;BME280;5663;50.864;12.096;2023-04-28T08:37:22;99182.81;;;14.78;54.60
11212;BME280;5663;50.864;12.096;2023-04-28T08:39:56;99178.63;;;14.75;55.00
11212;BME280;5663;50.864;12.096;2023-04-28T08:42:55;99183.47;;;14.69;55.21
11212;BME280;5663;50.864;12.096;2023-04-28T08:49:00;99179.50;;;14.63;56.22
11212;BME280;5663;50.864;12.096;2023-04-28T08:51:51;99184.75;;;14.63;56.04
11212;BME280;5663;50.864;12.096;2023-04-28T08:54:29;99163.38;;;14.44;56.56
11212;BME280;5663;50.864;12.096;2023-04-28T08:57:01;99185.41;;;14.54;56.71
11212;BME280;5663;50.864;12.096;2023-04-28T08:59:48;99188.22;;;14.51;56.86
11212;BME280;5663;50.864;12.096;2023-04-28T09:02:22;99188.13;;;14.52;56.76
11212;BME280;5663;50.864;12.096;2023-04-28T09:04:54;99192.50;;;14.52;56.79
11212;BME280;5663;50.864;12.096;2023-04-28T09:07:25;99197.97;;;14.49;55.92
11212;BME280;5663;50.864;12.096;2023-04-28T09:10:17;99184.75;;;14.38;54.99
11212;BME280;5663;50.864;12.096;2023-04-28T09:12:57;99201.47;;;14.48;56.14
11212;BME280;5663;50.864;12.096;2023-04-28T09:15:29;99192.28;;;14.42;56.56
11212;BME280;5663;50.864;12.096;2023-04-28T09:18:04;99192.63;;;14.38;56.87
11212;BME280;5663;50.864;12.096;2023-04-28T09:20:36;99196.28;;;14.35;57.32
11212;BME280;5663;50.864;12.096;2023-04-28T09:23:47;99153.19;;;14.02;59.04
11212;BME280;5663;50.864;12.096;2023-04-28T09:26:22;99193.97;;;14.30;58.64
11212;BME280;5663;50.864;12.096;2023-04-28T09:29:11;99176.91;;;14.12;59.85
11212;BME280;5663;50.864;12.096;2023-04-28T09:31:39;99197.94;;;14.23;59.68
11212;BME280;5663;50.864;12.096;2023-04-28T09:34:10;99188.13;;;14.14;60.26
11212;BME280;5663;50.864;12.096;2023-04-28T09:36:41;99187.94;;;14.04;60.87
11212;BME280;5663;50.864;12.096;2023-04-28T09:39:29;99185.72;;;13.98;61.61
11212;BME280;5663;50.864;12.096;2023-04-28T09:42:03;99180.81;;;13.94;62.00
11212;BME280;5663;50.864;12.096;2023-04-28T09:45:14;99176.59;;;13.91;62.56
11212;BME280;5663;50.864;12.096;2023-04-28T09:48:11;99182.03;;;13.88;62.60
11212;BME280;5663;50.864;12.096;2023-04-28T09:50:42;99182.91;;;13.89;62.79
11212;BME280;5663;50.864;12.096;2023-04-28T09:53:13;99179.53;;;13.87;61.96
11212;BME280;5663;50.864;12.096;2023-04-28T09:55:45;99183.00;;;13.87;62.55
11212;BME280;5663;50.864;12.096;2023-04-28T09:58:19;99180.50;;;13.86;62.77
11212;BME280;5663;50.864;12.096;2023-04-28T10:00:55;99178.06;;;13.83;62.58
11212;BME280;5663;50.864;12.096;2023-04-28T10:03:29;99163.03;;;13.73;63.28
11212;BME280;5663;50.864;12.096;2023-04-28T10:06:04;99173.47;;;13.73;63.99
11212;BME280;5663;50.864;12.096;2023-04-28T10:15:33;99134.78;;;13.53;64.08
11212;BME280;5663;50.864;12.096;2023-04-28T10:18:05;99184.56;;;13.77;64.77
11212;BME280;5663;50.864;12.096;2023-04-28T10:20:45;99173.28;;;13.76;64.55
11212;BME280;5663;50.864;12.096;2023-04-28T10:27:02;99158.00;;;13.70;65.79
11212;BME280;5663;50.864;12.096;2023-04-28T10:29:35;99125.78;;;13.57;65.58
11212;BME280;5663;50.864;12.096;2023-04-28T10:32:31;99140.84;;;13.66;66.02
11212;BME280;5663;50.864;12.096;2023-04-28T10:38:21;99131.84;;;13.58;65.33
11212;BME280;5663;50.864;12.096;2023-04-28T10:40:59;99145.00;;;13.56;65.88
11212;BME280;5663;50.864;12.096;2023-04-28T10:43:38;99126.72;;;13.56;66.02
11212;BME280;5663;50.864;12.096;2023-04-28T10:46:25;99130.59;;;13.63;65.99
11212;BME280;5663;50.864;12.096;2023-04-28T10:50:08;99114.84;;;13.65;64.85
11212;BME280;5663;50.864;12.096;2023-04-28T10:52:50;99122.25;;;13.71;65.23
11212;BME280;5663;50.864;12.096;2023-04-28T10:55:34;99122.66;;;13.77;65.21
11212;BME280;5663;50.864;12.096;2023-04-28T10:58:31;99129.16;;;13.85;65.60
11212;BME280;5663;50.864;12.096;2023-04-28T11:01:29;99126.84;;;13.93;65.98
11212;BME280;5663;50.864;12.096;2023-04-28T11:04:05;99126.41;;;13.99;65.88
11212;BME280;5663;50.864;12.096;2023-04-28T11:07:09;99120.97;;;14.15;66.47
11212;BME280;5663;50.864;12.096;2023-04-28T11:09:51;99115.00;;;14.25;66.33
11212;BME280;5663;50.864;12.096;2023-04-28T11:12:20;99127.19;;;14.38;66.42
11212;BME280;5663;50.864;12.096;2023-04-28T11:14:53;99121.53;;;14.44;66.51
11212;BME280;5663;50.864;12.096;2023-04-28T11:17:40;99118.19;;;14.54;66.55
11212;BME280;5663;50.864;12.096;2023-04-28T11:20:20;99106.22;;;14.63;65.67
11212;BME280;5663;50.864;12.096;2023-04-28T11:22:53;99102.72;;;14.75;66.48
11212;BME280;5663;50.864;12.096;2023-04-28T11:25:26;99077.28;;;14.77;66.57
11212;BME280;5663;50.864;12.096;2023-04-28T11:28:08;99099.66;;;15.06;66.23
11212;BME280;5663;50.864;12.096;2023-04-28T11:30:48;99087.44;;;15.17;66.13
11212;BME280;5663;50.864;12.096;2023-04-28T11:33:19;99082.22;;;15.28;64.76
11212;BME280;5663;50.864;12.096;2023-04-28T11:35:50;99071.50;;;15.32;64.65
11212;BME280;5663;50.864;12.096;2023-04-28T11:38:26;99044.69;;;15.17;63.71
11212;BME280;5663;50.864;12.096;2023-04-28T11:40:59;99073.31;;;15.42;64.07
11212;BME280;5663;50.864;12.096;2023-04-28T11:43:29;99073.94;;;15.46;63.88
11212;BME280;5663;50.864;12.096;2023-04-28T11:46:02;99078.94;;;15.49;64.01
11212;BME280;5663;50.864;12.096;2023-04-28T11:48:36;99049.50;;;15.45;64.22
11212;BME280;5663;50.864;12.096;2023-04-28T11:51:07;99065.41;;;15.66;64.10
11212;BME280;5663;50.864;12.096;2023-04-28T11:53:44;99054.47;;;15.72;63.72
11212;BME280;5663;50.864;12.096;2023-04-28T11:56:15;99055.16;;;15.74;63.01
11212;BME280;5663;50.864;12.096;2023-04-28T11:59:00;99059.44;;;15.75;63.14
11212;BME280;5663;50.864;12.096;2023-04-28T12:01:32;99057.09;;;15.72;63.50
11212;BME280;5663;50.864;12.096;2023-04-28T12:04:04;99056.13;;;15.73;63.31
11212;BME280;5663;50.864;12.096;2023-04-28T12:06:37;99048.94;;;15.75;63.45
11212;BME280;5663;50.864;12.096;2023-04-28T12:09:21;99049.91;;;15.74;63.81
11212;BME280;5663;50.864;12.096;2023-04-28T12:12:04;99056.50;;;15.80;63.21
11212;BME280;5663;50.864;12.096;2023-04-28T12:14:54;99056.72;;;15.77;63.19
11212;BME280;5663;50.864;12.096;2023-04-28T12:17:29;99059.22;;;15.79;62.99
11212;BME280;5663;50.864;12.096;2023-04-28T12:20:04;99052.06;;;15.81;63.01
11212;BME280;5663;50.864;12.096;2023-04-28T12:22:46;99055.41;;;15.83;62.45
11212;BME280;5663;50.864;12.096;2023-04-28T12:25:17;99056.13;;;15.73;62.20
11212;BME280;5663;50.864;12.096;2023-04-28T12:27:58;99063.25;;;15.71;62.74
11212;BME280;5663;50.864;12.096;2023-04-28T12:30:32;99033.81;;;15.57;62.44
11212;BME280;5663;50.864;12.096;2023-04-28T12:33:03;99050.03;;;15.73;62.59
11212;BME280;5663;50.864;12.096;2023-04-28T12:35:34;99013.19;;;15.41;62.58
11212;BME280;5663;50.864;12.096;2023-04-28T12:38:04;99011.47;;;15.40;62.75
11212;BME280;5663;50.864;12.096;2023-04-28T12:40:35;99050.41;;;15.68;62.05
11212;BME280;5663;50.864;12.096;2023-04-28T12:43:12;99049.66;;;15.66;61.94
11212;BME280;5663;50.864;12.096;2023-04-28T12:45:44;99039.19;;;15.66;62.10
11212;BME280;5663;50.864;12.096;2023-04-28T12:48:27;99035.84;;;15.64;62.04
11212;BME280;5663;50.864;12.096;2023-04-28T12:51:01;99036.34;;;15.69;62.10
11212;BME280;5663;50.864;12.096;2023-04-28T12:53:32;99033.22;;;15.75;62.17
11212;BME280;5663;50.864;12.096;2023-04-28T12:56:18;99025.13;;;15.79;62.17
11212;BME280;5663;50.864;12.096;2023-04-28T12:58:49;99008.69;;;15.76;62.37
11212;BME280;5663;50.864;12.096;2023-04-28T14:01:33;98956.50;;;17.02;58.94
11212;BME280;5663;50.864;12.096;2023-04-28T14:04:02;98952.00;;;17.14;59.43
11212;BME280;5663;50.864;12.096;2023-04-28T14:06:31;98951.13;;;17.24;59.13
11212;BME280;5663;50.864;12.096;2023-04-28T14:09:01;98948.34;;;17.26;59.08
11212;BME280;5663;50.864;12.096;2023-04-28T14:11:30;98947.94;;;17.31;58.96
11212;BME280;5663;50.864;12.096;2023-04-28T14:14:00;98949.75;;;17.30;58.97
11212;BME280;5663;50.864;12.096;2023-04-28T14:16:39;98950.56;;;17.31;59.15
11212;BME280;5663;50.864;12.096;2023-04-28T14:19:08;98918.56;;;17.16;59.19
11212;BME280;5663;50.864;12.096;2023-04-28T14:21:47;98941.75;;;17.32;58.99
11212;BME280;5663;50.864;12.096;2023-04-28T14:24:21;98944.75;;;17.27;58.31
11212;BME280;5663;50.864;12.096;2023-04-28T14:26:51;98944.47;;;17.20;58.65
11212;BME280;5663;50.864;12.096;2023-04-28T14:29:23;98948.03;;;17.19;58.69
11212;BME280;5663;50.864;12.096;2023-04-28T14:32:00;98953.56;;;17.16;58.81
11212;BME280;5663;50.864;12.096;2023-04-28T14:34:34;98937.78;;;17.16;58.82
11212;BME280;5663;50.864;12.096;2023-04-28T14:37:10;98938.31;;;17.10;58.46
11212;BME280;5663;50.864;12.096;2023-04-28T14:39:42;98927.22;;;17.07;58.47
11212;BME280;5663;50.864;12.096;2023-04-28T14:42:11;98926.38;;;17.06;58.78
11212;BME280;5663;50.864;12.096;2023-04-28T14:44:44;98922.50;;;17.01;59.00
11212;BME280;5663;50.864;12.096;2023-04-28T14:47:21;98921.94;;;16.97;58.93
11212;BME280;5663;50.864;12.096;2023-04-28T14:49:51;98914.53;;;16.91;59.31
11212;BME280;5663;50.864;12.096;2023-04-28T14:52:27;98919.81;;;16.91;59.53
11212;BME280;5663;50.864;12.096;2023-04-28T14:54:58;98923.84;;;16.95;59.68
11212;BME280;5663;50.864;12.096;2023-04-28T14:57:31;98921.94;;;16.97;59.96
11212;BME280;5663;50.864;12.096;2023-04-28T15:00:00;98919.41;;;16.95;59.71
11212;BME280;5663;50.864;12.096;2023-04-28T15:02:31;98918.56;;;16.95;59.80